Terminal Aerodrome Forecast
Issued by NWS Sioux Falls, SD

Home | Current Version | Previous Version | Graphics & Text | Print | Product List | Glossary Off
Versions: 1 2 3 4 5 6 7 8 9 10 11 12 13 14 15 16 17 18 19 20 21 22 23 24 25 26

000
FTUS43 KFSD 181133
TAFSUX
TAF
KSUX 181133Z 1812/1912 VRB05KT 6SM -SHRA OVC060
     FM181600 14007KT 5SM SHRA OVC025
      TEMPO 1819/1821 4SM TSRA OVC015CB
     FM182200 12007KT P6SM SCT015 BKN035
     FM190100 12006KT 6SM BR OVC022
     FM190700 22009KT 6SM BR OVC020=

USA.gov is the U.S. government's official web portal to all federal, state and local government web resources and services.